Time;durP1;ratioP1;P1;durP2;ratioP2;P2;SDS_P1;SDS_P2;PMS_P1;PMS_P2;Temp;Humidity;BMP_temperature;BMP_pressure;BME280_temperature;BME280_humidity;BME280_pressure;Samples;Min_cycle;Max_cycle;Signal;HPM_P1;HPM_P2
2021/08/11 00:01:24;;;;;;;12.45;7.65;;;;;;;21.65;72.17;100087.64;1743347;82;21428;-54
2021/08/11 00:04:30;;;;;;;12.30;7.92;;;;;;;21.61;72.15;100087.30;1742875;82;21376;-55
2021/08/11 00:07:35;;;;;;;15.08;7.42;;;;;;;21.60;72.12;100091.74;1743780;82;21376;-56
2021/08/11 00:10:43;;;;;;;12.95;7.42;;;;;;;21.56;72.18;100101.19;1743168;81;21763;-55
2021/08/11 00:13:48;;;;;;;13.55;7.40;;;;;;;21.53;72.21;100096.09;1743795;82;21272;-55
2021/08/11 00:16:55;;;;;;;12.95;7.75;;;;;;;21.52;72.15;100099.98;1742933;81;21198;-55
2021/08/11 00:20:00;;;;;;;14.40;8.53;;;;;;;21.51;72.23;100100.23;1742849;81;21216;-56
2021/08/11 00:23:05;;;;;;;12.58;7.67;;;;;;;21.51;72.33;100098.31;1743651;82;21198;-54
2021/08/11 00:26:11;;;;;;;10.35;7.17;;;;;;;21.52;72.34;100098.59;1743670;82;21324;-55
2021/08/11 00:29:16;;;;;;;12.88;7.40;;;;;;;21.54;72.29;100099.19;1743284;82;21281;-55
2021/08/11 00:32:21;;;;;;;12.95;7.83;;;;;;;21.54;72.01;100092.23;1742991;82;21289;-55
2021/08/11 00:35:27;;;;;;;13.72;7.28;;;;;;;21.56;71.72;100098.94;1743341;82;21225;-55
2021/08/11 00:38:33;;;;;;;10.88;7.15;;;;;;;21.56;71.53;100092.83;1743688;82;21356;-55
2021/08/11 00:41:47;;;;;;;12.10;7.10;;;;;;;21.56;71.39;100089.19;1743291;81;21344;-54
2021/08/11 00:44:49;;;;;;;16.50;7.75;;;;;;;21.54;71.54;100089.44;1743081;82;21226;-55
2021/08/11 00:47:55;;;;;;;14.38;7.00;;;;;;;21.52;71.71;100094.41;1742885;82;21198;-54
2021/08/11 00:51:02;;;;;;;11.88;7.40;;;;;;;21.48;71.73;100090.47;1741854;82;21325;-55
2021/08/11 00:54:08;;;;;;;8.83;6.90;;;;;;;21.44;71.79;100093.98;1732543;82;21411;-55
2021/08/11 00:57:17;;;;;;;11.60;6.25;;;;;;;21.40;71.93;100091.42;1743644;82;21213;-56
2021/08/11 01:00:26;;;;;;;17.23;7.85;;;;;;;21.38;72.03;100084.72;1743197;82;21971;-55
2021/08/11 01:03:33;;;;;;;12.35;7.70;;;;;;;21.38;71.96;100090.82;1743277;82;21703;-55
2021/08/11 01:06:39;;;;;;;9.50;6.92;;;;;;;21.36;71.94;100091.65;1742989;82;21198;-55
2021/08/11 01:09:44;;;;;;;10.63;6.53;;;;;;;21.33;71.90;100095.77;1742711;82;21408;-55
2021/08/11 01:12:50;;;;;;;12.07;6.80;;;;;;;21.28;71.90;100088.71;1742804;82;21344;-55
2021/08/11 01:15:57;;;;;;;16.02;6.62;;;;;;;21.26;71.98;100081.72;1743721;82;21231;-55
2021/08/11 01:19:02;;;;;;;10.40;6.75;;;;;;;21.25;71.97;100076.69;1743552;82;21376;-55
2021/08/11 01:22:18;;;;;;;11.38;6.75;;;;;;;21.21;71.86;100076.91;1743812;81;21183;-55
2021/08/11 01:25:49;;;;;;;11.10;6.15;;;;;;;21.18;71.85;100084.37;1742881;81;21285;-55
2021/08/11 01:29:10;;;;;;;11.15;5.92;;;;;;;21.17;71.84;100088.80;1742956;82;21396;-56
2021/08/11 01:32:26;;;;;;;12.58;6.45;;;;;;;21.15;71.85;100089.59;1743288;82;21201;-55
2021/08/11 01:35:38;;;;;;;9.38;6.25;;;;;;;21.13;71.94;100095.95;1743495;81;21659;-54
2021/08/11 01:38:44;;;;;;;10.40;6.40;;;;;;;21.12;71.84;100091.50;1740701;82;21222;-55
2021/08/11 01:42:00;;;;;;;10.80;6.67;;;;;;;21.11;71.80;100091.17;1741551;81;21198;-55
2021/08/11 01:45:20;;;;;;;10.72;6.20;;;;;;;21.07;71.67;100099.21;1743825;82;21272;-55
2021/08/11 01:48:34;;;;;;;10.80;6.40;;;;;;;21.04;71.72;100096.91;1733774;82;21862;-54
2021/08/11 01:51:39;;;;;;;9.95;6.00;;;;;;;21.04;71.72;100098.30;1742457;82;21254;-55
2021/08/11 01:54:45;;;;;;;9.63;6.25;;;;;;;21.03;71.79;100101.33;1743275;82;21773;-54
2021/08/11 01:57:57;;;;;;;9.20;6.55;;;;;;;21.01;71.73;100093.80;1752180;81;22039;-55
2021/08/11 02:01:05;;;;;;;9.63;5.72;;;;;;;20.99;71.76;100092.66;1743161;82;21256;-55
2021/08/11 02:04:15;;;;;;;8.28;5.40;;;;;;;21.02;71.65;100099.11;1743870;82;21218;-55
2021/08/11 02:07:20;;;;;;;9.38;5.83;;;;;;;21.03;71.38;100099.41;1743615;82;21190;-56
2021/08/11 02:10:28;;;;;;;11.63;5.37;;;;;;;21.03;71.19;100098.55;1743556;82;21410;-46
2021/08/11 02:13:34;;;;;;;9.00;4.92;;;;;;;21.05;70.96;100100.54;1742818;82;21292;-47
2021/08/11 02:16:41;;;;;;;9.45;5.80;;;;;;;21.07;70.78;100102.53;1742683;82;21210;-46
2021/08/11 02:19:47;;;;;;;9.25;5.45;;;;;;;21.10;70.52;100101.49;1743400;82;21390;-47
2021/08/11 02:22:55;;;;;;;9.90;5.33;;;;;;;21.12;70.25;100095.10;1743740;82;21258;-47
2021/08/11 02:26:20;;;;;;;9.40;6.03;;;;;;;21.11;69.90;100089.25;1744567;82;21197;-46
2021/08/11 02:29:55;;;;;;;8.88;5.75;;;;;;;21.12;69.88;100092.89;1743199;82;21396;-47
2021/08/11 02:33:07;;;;;;;10.05;5.22;;;;;;;21.10;69.72;100087.58;1742577;82;21221;-48
2021/08/11 02:36:16;;;;;;;10.05;5.55;;;;;;;21.11;69.54;100095.35;1742737;82;21196;-47
2021/08/11 02:39:21;;;;;;;11.50;5.30;;;;;;;21.11;69.39;100098.99;1743136;82;21260;-47
2021/08/11 02:42:40;;;;;;;10.55;5.42;;;;;;;21.11;69.24;100098.14;1744274;82;21206;-48
2021/08/11 02:45:47;;;;;;;6.53;5.25;;;;;;;21.13;69.06;100095.42;1743118;82;21237;-48
2021/08/11 02:49:02;;;;;;;10.18;5.15;;;;;;;21.14;69.07;100095.70;1741501;82;21202;-47
2021/08/11 02:52:08;;;;;;;9.13;5.30;;;;;;;21.17;68.98;100084.06;1742510;82;21723;-48
2021/08/11 02:55:15;;;;;;;8.18;4.83;;;;;;;21.19;68.68;100089.38;1742158;82;21340;-47
2021/08/11 02:58:23;;;;;;;7.90;5.05;;;;;;;21.18;68.27;100092.73;1742146;82;21368;-48
2021/08/11 03:01:35;;;;;;;10.13;5.03;;;;;;;21.18;68.16;100087.70;1741783;81;21202;-48
2021/08/11 03:04:42;;;;;;;7.90;5.22;;;;;;;21.19;68.19;100085.20;1741685;82;21252;-48
2021/08/11 03:07:49;;;;;;;9.08;5.47;;;;;;;21.20;68.41;100083.55;1741833;82;21278;-48
2021/08/11 03:10:55;;;;;;;10.30;6.25;;;;;;;21.22;68.49;100075.80;1741617;82;21253;-47
2021/08/11 03:14:00;;;;;;;9.40;6.87;;;;;;;21.26;68.67;100084.50;1741937;81;21229;-46
2021/08/11 03:17:09;;;;;;;11.18;6.87;;;;;;;21.30;68.27;100088.45;1742382;81;22023;-48
2021/08/11 03:20:18;;;;;;;9.63;6.15;;;;;;;21.32;68.25;100085.73;1741697;82;21206;-48
2021/08/11 03:23:25;;;;;;;9.95;6.28;;;;;;;21.36;68.05;100077.72;1742007;82;21203;-47
2021/08/11 03:26:30;;;;;;;8.43;5.75;;;;;;;21.39;68.06;100078.03;1742366;81;21190;-47
2021/08/11 03:29:35;;;;;;;12.82;5.78;;;;;;;21.42;67.75;100080.87;1741751;82;21225;-49
2021/08/11 03:32:43;;;;;;;10.78;7.08;;;;;;;21.44;67.81;100079.52;1741593;82;21206;-49
2021/08/11 03:35:50;;;;;;;12.25;6.60;;;;;;;21.48;67.69;100077.92;1741387;82;21525;-48
2021/08/11 03:38:57;;;;;;;15.85;6.85;;;;;;;21.56;67.32;100076.11;1741462;82;21217;-47
2021/08/11 03:42:02;;;;;;;14.78;7.12;;;;;;;21.63;67.30;100075.37;1741431;82;21923;-48
2021/08/11 03:45:07;;;;;;;12.95;6.78;;;;;;;21.72;66.69;100076.61;1741059;81;21264;-48
2021/08/11 03:48:14;;;;;;;13.55;6.62;;;;;;;21.77;66.41;100075.91;1752772;81;21754;-48
2021/08/11 03:51:20;;;;;;;15.72;6.53;;;;;;;21.79;66.02;100070.36;1743187;82;21225;-47
2021/08/11 03:54:27;;;;;;;13.85;6.72;;;;;;;21.81;65.65;100061.73;1744022;82;21249;-48
2021/08/11 03:57:33;;;;;;;11.20;6.40;;;;;;;21.84;65.46;100064.86;1752639;81;21356;-49
2021/08/11 04:00:38;;;;;;;8.90;5.70;;;;;;;21.88;65.14;100063.23;1742914;82;21206;-47
2021/08/11 04:03:46;;;;;;;10.23;6.12;;;;;;;21.93;64.77;100064.70;1743134;82;21407;-47
2021/08/11 04:06:51;;;;;;;9.98;6.03;;;;;;;21.95;64.51;100059.72;1742408;82;21211;-48
2021/08/11 04:09:57;;;;;;;18.37;6.55;;;;;;;21.98;64.31;100057.81;1742570;82;21418;-47
2021/08/11 04:13:03;;;;;;;16.90;7.87;;;;;;;22.00;64.29;100058.41;1743373;81;21261;-48
2021/08/11 04:16:07;;;;;;;15.32;8.28;;;;;;;22.01;63.95;100064.26;1742421;82;21281;-48
2021/08/11 04:19:14;;;;;;;13.95;6.87;;;;;;;22.02;63.88;100057.57;1742549;82;21198;-47
2021/08/11 04:22:20;;;;;;;10.55;6.50;;;;;;;22.04;63.95;100062.34;1743068;81;21245;-47
2021/08/11 04:25:25;;;;;;;11.28;5.83;;;;;;;22.05;64.07;100069.62;1743044;82;21261;-47
2021/08/11 04:28:32;;;;;;;11.38;6.08;;;;;;;22.06;64.10;100067.66;1742649;82;21217;-47
2021/08/11 04:31:36;;;;;;;15.00;6.65;;;;;;;22.10;63.90;100075.82;1742943;82;21363;-48
2021/08/11 04:34:41;;;;;;;14.07;5.95;;;;;;;22.12;63.65;100074.45;1743361;82;21766;-48
2021/08/11 04:37:47;;;;;;;9.00;5.53;;;;;;;22.12;63.34;100070.27;1748835;80;21235;-46
2021/08/11 04:40:52;;;;;;;10.38;5.40;;;;;;;22.14;63.23;100074.19;1736489;82;21188;-47
2021/08/11 04:43:56;;;;;;;7.12;5.00;;;;;;;22.16;63.13;100084.54;1736215;82;22030;-48
2021/08/11 04:47:01;;;;;;;10.30;5.40;;;;;;;22.18;63.13;100087.35;1739060;80;21408;-47
2021/08/11 04:50:08;;;;;;;12.15;6.12;;;;;;;22.23;63.24;100087.14;1763821;80;21222;-48
2021/08/11 04:53:12;;;;;;;9.15;5.37;;;;;;;22.27;63.13;100093.88;1730657;82;21526;-49
2021/08/11 04:56:19;;;;;;;7.62;5.75;;;;;;;22.34;63.02;100093.14;1730008;83;21704;-48
2021/08/11 04:59:24;;;;;;;11.25;5.72;;;;;;;22.42;62.79;100099.67;1729858;82;21793;-47
2021/08/11 05:02:30;;;;;;;9.35;5.92;;;;;;;22.47;62.69;100092.77;1728885;83;21277;-48
2021/08/11 05:05:36;;;;;;;9.13;5.25;;;;;;;22.51;62.77;100091.98;1741821;80;21203;-48
2021/08/11 05:08:43;;;;;;;10.28;5.65;;;;;;;22.59;62.69;100084.58;1770853;81;21195;-47
2021/08/11 05:11:52;;;;;;;11.45;6.03;;;;;;;22.67;62.57;100086.05;1769607;79;21344;-47
2021/08/11 05:15:01;;;;;;;9.10;5.58;;;;;;;22.76;62.38;100090.05;1745508;81;21302;-47
2021/08/11 05:18:05;;;;;;;12.30;6.12;;;;;;;22.86;61.97;100091.57;1716778;82;21251;-48
2021/08/11 05:21:11;;;;;;;9.48;5.45;;;;;;;22.95;61.61;100089.98;1762248;81;21182;-47
2021/08/11 05:24:16;;;;;;;9.20;5.60;;;;;;;23.01;61.27;100091.17;1733752;81;21207;-50
2021/08/11 05:27:24;;;;;;;6.47;5.03;;;;;;;23.08;60.70;100089.56;1766946;81;21343;-52
2021/08/11 05:30:29;;;;;;;8.48;5.37;;;;;;;23.18;60.26;100077.10;1793841;80;21265;-51
2021/08/11 05:33:34;;;;;;;10.08;5.28;;;;;;;23.31;59.57;100079.47;1793478;80;21250;-52
2021/08/11 05:36:40;;;;;;;11.43;5.60;;;;;;;23.33;58.96;100079.50;1793531;79;21176;-53
2021/08/11 05:39:46;;;;;;;8.50;4.72;;;;;;;23.38;59.37;100075.91;1793535;80;21752;-52
2021/08/11 05:42:50;;;;;;;7.72;5.08;;;;;;;23.44;58.76;100079.03;1792185;79;21246;-52
2021/08/11 05:45:55;;;;;;;9.13;4.90;;;;;;;23.50;58.84;100077.41;1793266;80;21258;-51
2021/08/11 05:49:01;;;;;;;8.95;4.78;;;;;;;23.56;58.54;100065.73;1727036;82;21764;-51
2021/08/11 05:52:05;;;;;;;10.98;5.10;;;;;;;23.63;58.42;100069.12;1730349;82;21388;-50
2021/08/11 05:55:10;;;;;;;7.45;4.90;;;;;;;23.69;58.24;100070.02;1726478;83;21334;-52
2021/08/11 05:58:17;;;;;;;8.48;5.33;;;;;;;23.79;58.06;100065.87;1728905;82;21227;-51
2021/08/11 06:01:24;;;;;;;8.93;4.87;;;;;;;23.94;58.20;100061.23;1725968;83;21970;-50
2021/08/11 06:04:29;;;;;;;8.65;4.92;;;;;;;24.10;57.69;100064.41;1742756;81;21205;-52
2021/08/11 06:07:35;;;;;;;8.85;5.22;;;;;;;24.26;57.16;100064.77;1714049;83;21757;-52
2021/08/11 06:10:39;;;;;;;8.58;5.20;;;;;;;24.38;56.81;100061.21;1726968;83;21820;-52
2021/08/11 06:13:46;;;;;;;11.33;5.28;;;;;;;24.49;56.96;100061.53;1727190;83;21899;-51
2021/08/11 06:16:51;;;;;;;7.95;4.85;;;;;;;24.60;56.96;100054.84;1718384;81;21197;-52
2021/08/11 06:19:56;;;;;;;7.87;5.00;;;;;;;24.72;56.36;100056.86;1727494;83;22046;-53
2021/08/11 06:23:01;;;;;;;10.68;5.25;;;;;;;24.82;56.29;100051.30;1733732;81;21877;-52
2021/08/11 06:26:06;;;;;;;7.35;4.75;;;;;;;24.93;56.47;100053.00;1724613;81;21391;-52
2021/08/11 06:29:12;;;;;;;9.95;5.37;;;;;;;25.05;56.57;100052.16;1719529;81;21424;-51
2021/08/11 06:32:17;;;;;;;9.35;4.65;;;;;;;25.14;56.43;100050.22;1716410;82;21271;-52
2021/08/11 06:35:22;;;;;;;7.78;5.15;;;;;;;25.17;56.06;100053.86;1725711;82;21342;-52
2021/08/11 06:38:28;;;;;;;8.83;5.17;;;;;;;25.21;56.36;100060.05;1705786;83;21346;-52
2021/08/11 06:41:34;;;;;;;7.22;5.12;;;;;;;25.27;56.21;100060.33;1710942;83;21561;-51
2021/08/11 06:44:40;;;;;;;15.65;4.75;;;;;;;25.33;55.54;100059.75;1730702;81;21201;-53
2021/08/11 06:47:46;;;;;;;7.28;5.05;;;;;;;25.39;55.73;100058.66;1740327;81;21396;-53
2021/08/11 06:50:51;;;;;;;9.43;4.62;;;;;;;25.47;55.67;100055.30;1763921;81;21195;-53
2021/08/11 06:53:56;;;;;;;12.20;4.92;;;;;;;25.59;55.59;100050.27;1769799;81;21231;-52
2021/08/11 06:57:01;;;;;;;7.83;4.40;;;;;;;25.74;54.99;100043.22;1768108;80;21180;-52
2021/08/11 07:00:06;;;;;;;8.53;4.12;;;;;;;25.87;54.38;100048.25;1773445;81;21298;-52
2021/08/11 07:03:12;;;;;;;6.87;4.20;;;;;;;25.97;53.59;100049.05;1749067;80;21219;-52
2021/08/11 07:06:18;;;;;;;6.78;4.60;;;;;;;26.08;53.02;100051.31;1746565;81;21184;-52
2021/08/11 07:09:24;;;;;;;7.72;3.92;;;;;;;26.18;52.62;100047.05;1762665;81;21212;-52
2021/08/11 07:12:29;;;;;;;10.63;3.67;;;;;;;26.29;52.04;100045.92;1732845;81;21200;-52
2021/08/11 07:15:35;;;;;;;10.15;4.12;;;;;;;26.42;51.86;100052.30;1740357;82;21828;-54
2021/08/11 07:18:41;;;;;;;8.98;4.25;;;;;;;26.54;51.57;100051.42;1788806;80;21211;-52
2021/08/11 07:21:47;;;;;;;7.03;3.95;;;;;;;26.67;51.04;100049.39;1793127;80;21221;-52
2021/08/11 07:24:52;;;;;;;7.55;3.70;;;;;;;26.78;50.51;100048.23;1793325;80;21286;-57
2021/08/11 07:27:57;;;;;;;7.78;4.45;;;;;;;26.84;49.67;100043.41;1793337;80;21183;-57
2021/08/11 07:31:03;;;;;;;7.25;3.83;;;;;;;26.87;50.29;100045.09;1791633;80;21198;-58
2021/08/11 07:34:11;;;;;;;7.87;3.80;;;;;;;26.91;50.16;100046.16;1772469;80;21230;-61
2021/08/11 07:37:17;;;;;;;11.53;4.08;;;;;;;26.97;49.62;100042.22;1740226;81;21501;-59
2021/08/11 07:40:22;;;;;;;9.05;3.90;;;;;;;27.04;50.15;100038.50;1730212;83;21782;-60
2021/08/11 07:43:27;;;;;;;9.20;4.17;;;;;;;27.06;48.90;100039.05;1760569;81;21235;-59
2021/08/11 07:46:34;;;;;;;6.25;4.60;;;;;;;27.05;49.75;100033.72;1759811;80;21239;-59
2021/08/11 07:49:40;;;;;;;5.92;3.62;;;;;;;27.08;50.50;100027.52;1776595;79;21230;-58
2021/08/11 07:52:48;;;;;;;11.88;4.35;;;;;;;27.12;49.77;100026.63;1787583;79;21158;-57
2021/08/11 07:55:56;;;;;;;10.15;3.85;;;;;;;27.14;48.28;100027.19;1788488;80;21212;-64
2021/08/11 07:59:01;;;;;;;10.10;4.28;;;;;;;27.16;48.77;100026.30;1788319;80;21499;-60
2021/08/11 08:02:10;;;;;;;6.92;3.80;;;;;;;27.23;48.80;100022.61;1781240;80;21725;-59
2021/08/11 08:05:16;;;;;;;7.85;3.72;;;;;;;27.29;48.03;100024.27;1790104;80;21156;-61
2021/08/11 08:08:22;;;;;;;16.10;4.45;;;;;;;27.29;48.13;100025.67;1806910;79;22025;-64
2021/08/11 08:11:27;;;;;;;8.73;4.08;;;;;;;27.31;48.71;100026.23;1806900;78;21322;-62
2021/08/11 08:14:33;;;;;;;7.03;3.62;;;;;;;27.37;49.15;100029.27;1734989;80;21201;-60
2021/08/11 08:17:39;;;;;;;7.47;4.03;;;;;;;27.44;48.09;100021.34;1768713;81;21200;-60
2021/08/11 08:20:46;;;;;;;11.20;4.22;;;;;;;27.48;47.69;100020.20;1768258;81;21275;-63
2021/08/11 08:23:52;;;;;;;8.35;4.08;;;;;;;27.51;48.14;100021.00;1738429;81;21279;-62
2021/08/11 08:26:58;;;;;;;7.17;3.75;;;;;;;27.52;47.23;100012.27;1740313;81;21243;-61
2021/08/11 08:30:04;;;;;;;6.60;3.60;;;;;;;27.53;47.68;100008.31;1752093;81;21180;-59
2021/08/11 08:33:10;;;;;;;8.35;4.00;;;;;;;27.56;47.04;100007.72;1757682;81;21600;-64
2021/08/11 08:36:24;;;;;;;7.85;3.60;;;;;;;27.62;47.40;100017.78;1750889;81;21752;-60
2021/08/11 08:39:29;;;;;;;9.08;4.08;;;;;;;27.68;47.15;100007.33;1751115;82;21740;-62
2021/08/11 08:42:35;;;;;;;8.15;3.83;;;;;;;27.72;46.95;100014.88;1752018;82;21208;-59
2021/08/11 08:45:44;;;;;;;8.78;4.15;;;;;;;27.83;46.86;100021.22;1752033;82;21211;-62
2021/08/11 08:48:53;;;;;;;7.00;3.67;;;;;;;27.88;46.10;100021.77;1752424;81;21263;-58
2021/08/11 08:51:58;;;;;;;9.50;3.95;;;;;;;27.91;46.01;100019.79;1730798;81;21258;-60
2021/08/11 08:55:06;;;;;;;7.60;3.80;;;;;;;27.96;45.59;100022.52;1732975;82;21204;-62
2021/08/11 08:58:12;;;;;;;5.62;3.87;;;;;;;28.02;46.09;100017.13;1733004;82;21985;-62
2021/08/11 09:01:16;;;;;;;8.80;3.60;;;;;;;28.07;45.57;100010.04;1733226;82;21626;-59
2021/08/11 09:04:22;;;;;;;6.55;3.90;;;;;;;28.10;46.07;100007.44;1734798;81;21427;-61
2021/08/11 09:07:28;;;;;;;8.45;3.90;;;;;;;28.15;46.48;99996.68;1760057;81;21190;-59
2021/08/11 09:10:36;;;;;;;7.40;3.55;;;;;;;28.22;46.32;99998.58;1771184;80;21189;-59
2021/08/11 09:13:42;;;;;;;8.10;4.20;;;;;;;28.27;46.60;99992.89;1771081;81;21774;-60
2021/08/11 09:16:56;;;;;;;6.33;4.28;;;;;;;28.34;46.56;100000.37;1759307;80;21200;-61
2021/08/11 09:20:01;;;;;;;10.45;5.83;;;;;;;28.36;46.73;100000.92;1757899;79;21316;-60
2021/08/11 09:23:07;;;;;;;7.35;3.72;;;;;;;28.42;46.83;100004.78;1750663;81;21368;-59
2021/08/11 09:26:15;;;;;;;9.13;3.75;;;;;;;28.53;45.45;100005.50;1726693;83;21304;-59
2021/08/11 09:29:21;;;;;;;5.45;3.50;;;;;;;28.60;45.59;100004.58;1726602;83;21352;-61
2021/08/11 09:32:27;;;;;;;7.00;3.30;;;;;;;28.67;45.52;100003.64;1726743;83;21367;-60
2021/08/11 09:35:42;;;;;;;6.78;3.75;;;;;;;28.73;44.74;100005.23;1726752;83;21394;-60
2021/08/11 09:39:12;;;;;;;6.90;4.10;;;;;;;28.75;44.52;100002.93;1726712;83;21378;-60
2021/08/11 09:42:18;;;;;;;7.50;3.02;;;;;;;28.80;44.67;100002.86;1694898;82;21192;-59
2021/08/11 09:45:23;;;;;;;6.22;3.35;;;;;;;28.91;43.90;99996.77;1729495;81;21338;-60
2021/08/11 09:48:34;;;;;;;9.20;3.47;;;;;;;29.01;43.52;100000.00;1723776;81;21863;-60
2021/08/11 09:51:39;;;;;;;6.60;3.65;;;;;;;29.10;43.51;100000.45;1763302;80;21599;-60
2021/08/11 09:54:45;;;;;;;9.35;3.92;;;;;;;29.18;43.13;99996.08;1763431;81;21291;-60
2021/08/11 09:57:52;;;;;;;7.37;3.75;;;;;;;29.21;43.01;99992.65;1755320;81;21180;-61
2021/08/11 10:01:00;;;;;;;5.83;3.40;;;;;;;29.28;43.14;99991.69;1763162;81;21207;-60
2021/08/11 10:04:14;;;;;;;9.58;3.95;;;;;;;29.39;43.35;99990.38;1762381;81;21716;-59
2021/08/11 10:07:32;;;;;;;8.15;3.85;;;;;;;29.50;42.48;99987.63;1751189;80;21748;-62
2021/08/11 10:10:52;;;;;;;13.83;3.60;;;;;;;29.53;41.93;100003.94;1763157;80;21191;-61
2021/08/11 10:13:57;;;;;;;9.18;3.55;;;;;;;29.57;41.60;99988.08;1755735;81;21184;-61
2021/08/11 10:17:04;;;;;;;11.33;4.03;;;;;;;29.67;41.25;100004.02;1762436;81;21751;-61
2021/08/11 10:20:14;;;;;;;8.10;4.03;;;;;;;29.74;41.25;99991.17;1764856;80;21741;-60
2021/08/11 10:23:23;;;;;;;9.23;3.72;;;;;;;29.84;40.74;99988.73;1763157;81;21191;-61
2021/08/11 10:26:29;;;;;;;9.20;3.60;;;;;;;29.89;40.61;99982.39;1723488;80;21349;-59
2021/08/11 10:29:34;;;;;;;8.45;3.85;;;;;;;29.96;40.69;99983.39;1715675;83;21196;-61
2021/08/11 10:32:40;;;;;;;7.37;3.95;;;;;;;30.16;40.11;99978.77;1737047;81;21674;-61
2021/08/11 10:35:47;;;;;;;7.25;3.75;;;;;;;30.16;40.11;99978.77;1763272;81;21188;-61
2021/08/11 10:38:55;;;;;;;7.60;3.85;;;;;;;30.22;40.63;99971.28;1762828;81;21227;-61
2021/08/11 10:42:01;;;;;;;12.70;4.22;;;;;;;30.39;40.57;99981.95;1763086;81;21179;-61
2021/08/11 10:45:09;;;;;;;8.23;3.90;;;;;;;30.39;40.57;99981.95;1762908;81;21764;-58
2021/08/11 10:48:23;;;;;;;6.35;3.60;;;;;;;30.47;40.47;99975.56;1763260;81;21235;-57
2021/08/11 10:51:46;;;;;;;8.90;3.90;;;;;;;30.57;40.12;99980.39;1763661;81;21665;-58
2021/08/11 10:55:09;;;;;;;5.55;3.50;;;;;;;30.59;39.99;99971.03;1744346;81;21354;-57
2021/08/11 10:58:16;;;;;;;5.87;3.90;;;;;;;30.67;39.65;99970.85;1719039;83;21256;-57
2021/08/11 11:01:42;;;;;;;8.68;3.83;;;;;;;30.76;40.44;99967.58;1712920;83;21178;-57
2021/08/11 11:04:51;;;;;;;5.72;3.67;;;;;;;30.87;39.53;99976.65;1739765;81;21207;-56
2021/08/11 11:08:24;;;;;;;6.45;3.70;;;;;;;30.83;39.26;99966.55;1714703;83;22650;-58
2021/08/11 11:11:41;;;;;;;6.30;3.77;;;;;;;30.83;39.48;99977.85;1720924;81;21315;-57
2021/08/11 11:15:01;;;;;;;8.63;4.15;;;;;;;30.91;39.36;99973.42;1728148;81;21413;-57
2021/08/11 11:18:25;;;;;;;9.00;3.52;;;;;;;31.01;39.36;99971.20;1719504;83;21327;-58
2021/08/11 11:21:34;;;;;;;6.70;3.80;;;;;;;31.12;39.04;99963.29;1736881;82;21177;-59
2021/08/11 11:24:56;;;;;;;6.62;3.60;;;;;;;31.19;38.99;99970.77;1698702;83;21276;-58
2021/08/11 11:28:02;;;;;;;13.30;3.95;;;;;;;31.29;38.78;99961.43;1730328;82;21231;-58
2021/08/11 11:31:07;;;;;;;11.60;4.00;;;;;;;31.39;38.38;99966.86;1744300;82;21281;-56
2021/08/11 11:34:32;;;;;;;8.18;3.72;;;;;;;31.45;38.35;99968.97;1728194;82;21780;-57
2021/08/11 11:37:38;;;;;;;7.80;3.92;;;;;;;31.52;38.18;99954.64;1744857;82;21932;-57
2021/08/11 11:41:08;;;;;;;7.80;3.87;;;;;;;31.60;38.39;99963.73;1744826;82;21391;-56
2021/08/11 11:44:53;;;;;;;9.83;3.98;;;;;;;31.67;38.29;99962.70;1744441;82;21399;-57
2021/08/11 11:48:09;;;;;;;6.97;3.77;;;;;;;31.60;38.42;99953.81;1741941;82;21285;-56
2021/08/11 11:51:16;;;;;;;6.92;3.37;;;;;;;31.64;38.57;99954.86;1722992;81;21183;-59
2021/08/11 11:54:22;;;;;;;8.48;4.03;;;;;;;31.70;38.67;99966.86;1748365;80;21859;-57
2021/08/11 11:57:29;;;;;;;5.87;3.65;;;;;;;31.69;38.05;99953.88;1758556;81;21204;-58
2021/08/11 12:00:34;;;;;;;7.85;3.65;;;;;;;31.69;38.33;99956.70;1760680;81;21231;-57
2021/08/11 12:03:51;;;;;;;5.65;3.30;;;;;;;31.69;37.90;99954.72;1758755;81;21216;-57
2021/08/11 12:07:00;;;;;;;7.65;4.00;;;;;;;31.65;37.98;99955.70;1752577;81;21729;-57
2021/08/11 12:10:06;;;;;;;6.78;3.37;;;;;;;31.66;38.23;99954.53;1733588;81;21188;-57
2021/08/11 12:13:12;;;;;;;10.20;4.40;;;;;;;31.74;37.82;99953.74;1762901;81;21358;-57
2021/08/11 12:16:17;;;;;;;6.80;3.60;;;;;;;31.72;38.06;99948.41;1763842;81;21334;-56
2021/08/11 12:19:25;;;;;;;12.82;4.53;;;;;;;31.77;38.15;99943.17;1739612;81;21712;-57
2021/08/11 12:22:42;;;;;;;6.53;3.55;;;;;;;31.88;37.99;99939.77;1763847;81;21370;-58
2021/08/11 12:25:49;;;;;;;7.78;3.83;;;;;;;31.98;37.33;99940.06;1764338;80;21251;-55
2021/08/11 12:28:58;;;;;;;6.22;2.92;;;;;;;32.00;37.13;99935.72;1763278;80;21219;-57
2021/08/11 12:32:03;;;;;;;7.80;3.20;;;;;;;32.01;37.24;99943.65;1763164;81;21180;-57
2021/08/11 12:35:10;;;;;;;7.12;3.58;;;;;;;31.92;37.17;99930.86;1763661;80;21313;-57
2021/08/11 12:38:16;;;;;;;7.30;4.10;;;;;;;31.90;37.46;99929.53;1746299;81;21839;-56
2021/08/11 12:41:27;;;;;;;7.30;3.33;;;;;;;31.87;37.10;99924.52;1732688;82;21192;-57
2021/08/11 12:44:34;;;;;;;7.45;3.55;;;;;;;31.98;37.30;99923.06;1733055;83;21184;-55
2021/08/11 12:47:44;;;;;;;6.40;3.05;;;;;;;32.09;36.98;99916.51;1733290;82;21190;-58
2021/08/11 12:50:51;;;;;;;7.72;3.10;;;;;;;32.12;36.37;99922.92;1732924;83;21767;-58
2021/08/11 12:54:11;;;;;;;6.12;3.52;;;;;;;32.04;36.29;99920.33;1733152;83;21359;-56
2021/08/11 12:57:18;;;;;;;11.38;3.60;;;;;;;32.01;36.46;99913.91;1733591;82;21329;-57
2021/08/11 13:00:25;;;;;;;8.93;3.75;;;;;;;31.99;36.58;99914.23;1741651;81;21604;-59
2021/08/11 13:03:31;;;;;;;9.08;3.72;;;;;;;31.93;36.11;99914.14;1713279;83;21233;-56
2021/08/11 13:06:42;;;;;;;10.30;3.45;;;;;;;31.86;36.44;99915.75;1698856;83;21347;-56
2021/08/11 13:09:48;;;;;;;7.15;3.75;;;;;;;31.83;36.26;99914.96;1714540;83;21282;-57
2021/08/11 13:13:04;;;;;;;7.95;3.60;;;;;;;31.86;36.60;99911.51;1713901;83;21415;-57
2021/08/11 13:16:21;;;;;;;6.08;3.35;;;;;;;31.86;36.58;99917.17;1727139;82;21788;-56
2021/08/11 13:19:28;;;;;;;8.10;3.62;;;;;;;31.83;37.02;99913.55;1743276;82;21391;-56
2021/08/11 13:22:34;;;;;;;10.05;3.75;;;;;;;31.91;37.17;99911.36;1743479;81;21349;-58
2021/08/11 13:25:40;;;;;;;6.05;3.58;;;;;;;31.92;36.81;99907.39;1744078;81;21203;-58
2021/08/11 13:28:49;;;;;;;9.20;3.77;;;;;;;31.82;36.93;99908.48;1745223;81;21405;-56
2021/08/11 13:31:56;;;;;;;9.08;3.85;;;;;;;31.72;37.20;99908.77;1743743;81;21202;-58
2021/08/11 13:35:03;;;;;;;10.13;4.00;;;;;;;31.65;36.96;99911.82;1743591;81;21409;-56
2021/08/11 13:38:10;;;;;;;7.33;3.37;;;;;;;31.58;37.14;99910.88;1741691;82;21194;-57
2021/08/11 13:41:15;;;;;;;11.00;3.85;;;;;;;31.55;37.19;99915.77;1741978;81;21928;-57
2021/08/11 13:44:21;;;;;;;10.18;3.58;;;;;;;31.46;37.34;99914.87;1707271;82;21325;-57
2021/08/11 13:47:24;;;;;;;7.55;3.55;;;;;;;31.42;37.09;99911.61;1732385;82;21327;-54
2021/08/11 13:50:29;;;;;;;;;;;;;;;31.37;37.25;99908.34;1723154;82;21315;-56
2021/08/11 13:53:36;;;;;;;6.92;3.30;;;;;;;31.42;37.62;99911.61;1717703;82;20221;-58
2021/08/11 13:56:44;;;;;;;7.60;3.22;;;;;;;31.47;37.58;99920.80;1755061;80;21175;-57
2021/08/11 13:59:49;;;;;;;9.03;3.95;;;;;;;31.50;37.80;99916.48;1751399;81;21879;-58
2021/08/11 14:02:55;;;;;;;9.48;4.08;;;;;;;31.50;37.26;99919.31;1758088;81;21358;-55
2021/08/11 14:06:05;;;;;;;6.45;3.90;;;;;;;31.45;37.66;99920.86;1725671;81;21760;-57
2021/08/11 14:09:12;;;;;;;21.45;4.80;;;;;;;31.37;37.63;99920.22;1757850;81;21389;-57
2021/08/11 14:12:21;;;;;;;10.80;4.08;;;;;;;31.25;38.02;99931.28;1746438;81;21200;-55
2021/08/11 14:15:29;;;;;;;6.42;3.75;;;;;;;31.14;38.20;99928.46;1790728;80;21234;-55
2021/08/11 14:18:35;;;;;;;8.25;3.58;;;;;;;31.05;38.56;99928.98;1790701;80;21850;-54
2021/08/11 14:21:53;;;;;;;8.33;4.10;;;;;;;30.95;38.66;99925.84;1758984;81;21211;-54
2021/08/11 14:25:02;;;;;;;7.25;3.77;;;;;;;30.87;39.11;99929.42;1760022;81;21381;-53
2021/08/11 14:28:07;;;;;;;6.95;3.62;;;;;;;30.86;39.36;99918.44;1741187;82;21890;-55
2021/08/11 14:31:13;;;;;;;8.40;3.62;;;;;;;30.86;39.13;99921.27;1760279;81;21798;-54
2021/08/11 14:34:20;;;;;;;11.63;4.35;;;;;;;30.90;38.79;99929.35;1741217;82;21898;-55